createdAt,value
2017-07-04T00:00:33.256Z,0
2017-07-04T00:01:33.566Z,0
2017-07-04T00:02:33.611Z,0
2017-07-04T00:03:33.965Z,0
2017-07-04T00:04:33.636Z,0
2017-07-04T00:05:33.685Z,0
2017-07-04T00:06:48.628Z,0
2017-07-04T00:07:33.714Z,0
2017-07-04T00:08:33.456Z,0
2017-07-04T00:09:33.471Z,0
2017-07-04T00:10:48.090Z,0
2017-07-04T00:11:33.512Z,0
2017-07-04T00:12:33.832Z,0
2017-07-04T00:13:33.569Z,0
2017-07-04T00:14:33.905Z,0
2017-07-04T00:15:33.622Z,0
2017-07-04T00:16:34.265Z,0
2017-07-04T00:17:34.314Z,0
2017-07-04T00:18:34.322Z,0
2017-07-04T00:19:34.029Z,0
2017-07-04T00:21:34.084Z,0
2017-07-04T00:22:49.028Z,0
2017-07-04T00:23:34.429Z,0
2017-07-04T00:24:33.842Z,0
2017-07-04T00:25:34.165Z,0
2017-07-04T00:26:34.207Z,0
2017-07-04T00:27:33.897Z,0
2017-07-04T00:28:34.263Z,0
2017-07-04T00:29:34.594Z,0
2017-07-04T00:31:34.339Z,0
2017-07-04T00:32:34.372Z,0
2017-07-04T00:33:34.366Z,0
2017-07-04T00:34:34.402Z,0
2017-07-04T00:35:34.731Z,0
2017-07-04T00:36:34.457Z,0
2017-07-04T00:37:49.429Z,0
2017-07-04T00:38:34.905Z,0
2017-07-04T00:39:34.838Z,0
2017-07-04T00:40:34.239Z,0
2017-07-04T00:41:34.561Z,0
2017-07-04T00:42:34.914Z,0
2017-07-04T00:43:34.942Z,0
2017-07-04T00:44:34.963Z,0
2017-07-04T00:45:34.375Z,0
2017-07-04T00:47:34.732Z,0
2017-07-04T00:48:34.434Z,0
2017-07-04T00:49:35.101Z,0
2017-07-04T00:50:34.798Z,0
2017-07-04T00:51:34.515Z,0
2017-07-04T00:52:34.850Z,0
2017-07-04T00:53:49.785Z,0
2017-07-04T00:54:34.899Z,0
2017-07-04T00:55:34.612Z,0
2017-07-04T00:56:34.612Z,0
2017-07-04T00:57:49.902Z,0
2017-07-04T00:58:34.979Z,0
2017-07-04T00:59:35.332Z,0
2017-07-04T01:00:34.727Z,0
2017-07-04T01:01:35.078Z,0
2017-07-04T01:02:35.102Z,0
2017-07-04T01:03:49.710Z,0
2017-07-04T01:04:35.145Z,0
2017-07-04T01:05:35.474Z,0
2017-07-04T01:06:35.199Z,0
2017-07-04T01:07:35.513Z,0
2017-07-04T01:08:34.925Z,0
2017-07-04T01:09:49.870Z,0
2017-07-04T01:10:35.299Z,0
2017-07-04T01:11:49.596Z,0
2017-07-04T01:12:35.012Z,0
2017-07-04T01:13:35.382Z,0
2017-07-04T01:14:35.368Z,0
2017-07-04T01:15:35.429Z,0
2017-07-04T01:16:35.432Z,0
2017-07-04T01:17:35.154Z,0
2017-07-04T01:19:35.497Z,0
2017-07-04T01:20:35.223Z,0
2017-07-04T01:21:50.476Z,0
2017-07-04T01:22:35.270Z,0
2017-07-04T01:23:35.945Z,0
2017-07-04T01:25:50.273Z,0
2017-07-04T01:26:35.688Z,0
2017-07-04T01:27:35.700Z,0
2017-07-04T01:28:35.420Z,0
2017-07-04T01:29:35.425Z,0
2017-07-04T01:30:50.077Z,0
2017-07-04T01:31:50.403Z,0
2017-07-04T01:32:35.521Z,0
2017-07-04T01:33:50.460Z,0
2017-07-04T01:34:35.554Z,0
2017-07-04T01:35:35.588Z,0
2017-07-04T01:36:50.521Z,0
2017-07-04T01:37:36.257Z,0
2017-07-04T01:38:35.345Z,0
2017-07-04T01:39:35.671Z,0
2017-07-04T01:42:05.249Z,0
2017-07-04T01:42:36.378Z,0
2017-07-04T01:43:35.788Z,0
2017-07-04T01:44:36.130Z,0
2017-07-04T01:46:36.468Z,0
2017-07-04T01:48:51.133Z,0
2017-07-04T01:49:36.244Z,0
2017-07-04T01:51:35.653Z,0
2017-07-04T01:52:50.919Z,0
2017-07-04T01:53:36.321Z,0
2017-07-04T01:54:36.369Z,0
2017-07-04T01:55:36.376Z,0
2017-07-04T01:56:36.418Z,0
2017-07-04T01:57:50.714Z,0
2017-07-04T01:58:51.060Z,0
2017-07-04T01:59:51.088Z,0
2017-07-04T02:01:36.220Z,0
2017-07-04T02:02:36.886Z,0
2017-07-04T02:03:35.948Z,0
2017-07-04T02:04:36.912Z,0
2017-07-04T02:05:36.622Z,0
2017-07-04T02:06:36.653Z,4
2017-07-04T02:07:36.355Z,4
2017-07-04T02:08:37.027Z,4
2017-07-04T02:10:36.766Z,4
2017-07-04T02:11:36.763Z,4
2017-07-04T02:12:51.400Z,0
2017-07-04T02:13:36.817Z,4
2017-07-04T02:14:36.859Z,4
2017-07-04T02:15:36.639Z,4
2017-07-04T02:16:36.877Z,4
2017-07-04T02:17:36.919Z,8
2017-07-04T02:18:37.266Z,8
2017-07-04T02:19:36.650Z,8
2017-07-04T02:20:37.316Z,12
2017-07-04T02:21:51.931Z,12
2017-07-04T02:22:37.046Z,8
2017-07-04T02:23:37.056Z,8
2017-07-04T02:24:36.785Z,16
2017-07-04T02:25:37.120Z,12
2017-07-04T02:26:37.140Z,20
2017-07-04T02:27:37.160Z,20
2017-07-04T02:28:51.788Z,20
2017-07-04T02:29:37.219Z,28
2017-07-04T02:30:37.225Z,36
2017-07-04T02:31:37.276Z,44
2017-07-04T02:32:36.955Z,52
2017-07-04T02:33:37.311Z,60
2017-07-04T02:34:37.322Z,68
2017-07-04T02:35:52.255Z,80
2017-07-04T02:36:36.749Z,88
2017-07-04T02:37:37.391Z,96
2017-07-04T02:38:37.436Z,104
2017-07-04T02:39:37.440Z,116
2017-07-04T02:40:37.468Z,124
2017-07-04T02:42:37.213Z,140
2017-07-04T02:43:37.855Z,152
2017-07-04T02:45:07.091Z,160
2017-07-04T02:45:37.582Z,168
2017-07-04T02:46:37.932Z,192
2017-07-04T02:48:52.272Z,240
2017-07-04T02:49:38.006Z,252
2017-07-04T02:50:37.723Z,268
2017-07-04T02:51:52.334Z,292
2017-07-04T02:52:37.435Z,312
2017-07-04T02:53:37.162Z,332
2017-07-04T02:54:52.729Z,368
2017-07-04T02:56:37.225Z,388
2017-07-04T02:58:37.589Z,420
2017-07-04T02:59:37.915Z,448
2017-07-04T03:00:52.567Z,472
2017-07-04T03:01:38.279Z,492
2017-07-04T03:02:52.609Z,536
2017-07-04T03:03:38.020Z,552
2017-07-04T03:04:37.733Z,572
2017-07-04T03:05:37.737Z,556
2017-07-04T03:06:37.809Z,544
2017-07-04T03:07:38.135Z,552
2017-07-04T03:08:38.140Z,552
2017-07-04T03:09:37.858Z,536
2017-07-04T03:10:38.187Z,544
2017-07-04T03:11:37.907Z,480
2017-07-04T03:12:52.528Z,412
2017-07-04T03:13:38.267Z,508
2017-07-04T03:14:38.610Z,348
2017-07-04T03:15:53.221Z,328
2017-07-04T03:17:38.379Z,260
2017-07-04T03:18:38.069Z,260
2017-07-04T03:20:38.432Z,292
2017-07-04T03:21:38.149Z,324
2017-07-04T03:22:38.780Z,304
2017-07-04T03:23:38.806Z,316
2017-07-04T03:24:38.215Z,324
2017-07-04T03:25:38.245Z,376
2017-07-04T03:26:38.565Z,428
2017-07-04T03:27:38.286Z,388
2017-07-04T03:28:38.629Z,488
2017-07-04T03:30:52.958Z,312
2017-07-04T03:31:38.689Z,292
2017-07-04T03:32:53.627Z,364
2017-07-04T03:33:39.056Z,396
2017-07-04T03:35:53.385Z,408
2017-07-04T03:36:38.199Z,444
2017-07-04T03:37:38.529Z,472
2017-07-04T03:39:39.198Z,880
2017-07-04T03:40:38.611Z,684
2017-07-04T03:41:38.616Z,640
2017-07-04T03:42:38.677Z,744
2017-07-04T03:43:38.666Z,932
2017-07-04T03:44:53.617Z,1000
2017-07-04T03:45:39.020Z,1408
2017-07-04T03:46:38.752Z,1404
2017-07-04T03:48:54.028Z,1228
2017-07-04T03:49:39.450Z,1312
2017-07-04T03:50:39.443Z,1492
2017-07-04T03:51:39.179Z,1772
2017-07-04T03:52:39.206Z,1804
2017-07-04T03:53:39.238Z,2448
2017-07-04T03:54:38.937Z,2812
2017-07-04T03:56:53.896Z,1436
2017-07-04T03:57:53.911Z,1332
2017-07-04T03:58:39.347Z,1368
2017-07-04T03:59:53.977Z,1548
2017-07-04T04:00:39.085Z,2272
2017-07-04T04:01:39.110Z,3140
2017-07-04T04:02:39.432Z,2516
2017-07-04T04:03:39.463Z,1608
2017-07-04T04:04:39.487Z,2312
2017-07-04T04:05:39.520Z,3272
2017-07-04T04:06:39.541Z,6360
2017-07-04T04:07:53.859Z,5888
2017-07-04T04:08:39.583Z,4096
2017-07-04T04:09:39.927Z,4856
2017-07-04T04:10:39.642Z,4248
2017-07-04T04:11:39.347Z,4308
2017-07-04T04:12:39.689Z,3756
2017-07-04T04:13:40.033Z,4644
2017-07-04T04:15:39.501Z,4856
2017-07-04T04:16:39.140Z,3420
2017-07-04T04:17:39.812Z,3012
2017-07-04T04:18:39.511Z,3796
2017-07-04T04:19:54.771Z,2688
2017-07-04T04:20:54.476Z,3180
2017-07-04T04:21:39.577Z,2704
2017-07-04T04:22:54.843Z,1896
2017-07-04T04:23:54.857Z,1732
2017-07-04T04:24:40.301Z,1932
2017-07-04T04:25:39.691Z,2512
2017-07-04T04:26:54.616Z,2488
2017-07-04T04:27:40.042Z,2196
2017-07-04T04:29:40.091Z,3316
2017-07-04T04:30:40.110Z,3740
2017-07-04T04:32:40.167Z,6880
2017-07-04T04:33:40.198Z,8192
2017-07-04T04:34:54.497Z,6268
2017-07-04T04:35:55.149Z,4800
2017-07-04T04:36:39.623Z,4076
2017-07-04T04:37:39.980Z,4524
2017-07-04T04:38:40.295Z,3264
2017-07-04T04:39:40.331Z,2084
2017-07-04T04:40:40.362Z,1532
2017-07-04T04:41:40.705Z,1484
2017-07-04T04:42:55.022Z,1748
2017-07-04T04:43:40.112Z,1688
2017-07-04T04:44:40.460Z,1716
2017-07-04T04:45:40.475Z,1084
2017-07-04T04:46:40.835Z,904
2017-07-04T04:47:40.533Z,1672
2017-07-04T04:48:40.877Z,1296
2017-07-04T04:49:40.264Z,1176
2017-07-04T04:50:40.298Z,1820
2017-07-04T04:51:55.528Z,1700
2017-07-04T04:52:40.329Z,1828
2017-07-04T04:53:41.002Z,2832
2017-07-04T04:54:40.389Z,7048
2017-07-04T04:55:40.737Z,44704
2017-07-04T04:56:40.437Z,6908
2017-07-04T04:57:40.772Z,3056
2017-07-04T04:58:40.464Z,2276
2017-07-04T04:59:40.514Z,1832
2017-07-04T05:00:40.948Z,1492
2017-07-04T05:01:40.555Z,1352
2017-07-04T05:02:40.894Z,1368
2017-07-04T05:03:41.228Z,1380
2017-07-04T05:04:40.946Z,1472
2017-07-04T05:05:40.968Z,1516
2017-07-04T05:06:40.992Z,1552
2017-07-04T05:07:55.935Z,1144
2017-07-04T05:08:41.338Z,1268
2017-07-04T05:09:41.081Z,1240
2017-07-04T05:10:41.066Z,1388
2017-07-04T05:11:41.122Z,1852
2017-07-04T05:12:41.137Z,1568
2017-07-04T05:13:41.176Z,1752
2017-07-04T05:14:40.862Z,2328
2017-07-04T05:15:41.522Z,2856
2017-07-04T05:16:41.282Z,2600
2017-07-04T05:17:41.575Z,3248
2017-07-04T05:18:40.956Z,3360
2017-07-04T05:19:41.053Z,3424
2017-07-04T05:20:41.330Z,3892
2017-07-04T05:21:41.056Z,3452
2017-07-04T05:22:55.655Z,3040
2017-07-04T05:23:41.734Z,2556
2017-07-04T05:24:41.413Z,2828
2017-07-04T05:25:41.764Z,3256
2017-07-04T05:26:41.149Z,3084
2017-07-04T05:27:41.508Z,2876
2017-07-04T05:28:41.205Z,5396
2017-07-04T05:30:55.866Z,48512
2017-07-04T05:31:40.979Z,18048
2017-07-04T05:32:40.979Z,57696
2017-07-04T05:33:56.580Z,9132
2017-07-04T05:34:41.650Z,6952
2017-07-04T05:35:56.611Z,5776
2017-07-04T05:36:41.727Z,4960
2017-07-04T05:37:41.751Z,5040
2017-07-04T05:38:41.468Z,8108
2017-07-04T05:39:41.801Z,17344
2017-07-04T05:40:41.832Z,18048
2017-07-04T05:41:56.448Z,11840
2017-07-04T05:42:42.187Z,14992
2017-07-04T05:43:41.893Z,8232
2017-07-04T05:44:56.527Z,5852
2017-07-04T05:45:41.634Z,6456
2017-07-04T05:46:41.336Z,4844
2017-07-04T05:47:56.286Z,3620
2017-07-04T05:48:42.316Z,3672
2017-07-04T05:49:56.967Z,7872
2017-07-04T05:50:41.749Z,82144
2017-07-04T05:51:42.426Z,33664
2017-07-04T05:52:41.819Z,79808
2017-07-04T05:53:42.150Z,15112
2017-07-04T05:54:56.766Z,5712
2017-07-04T05:55:56.801Z,5652
2017-07-04T05:56:41.586Z,5136
2017-07-04T05:57:42.564Z,5072
2017-07-04T05:58:42.592Z,7320
2017-07-04T05:59:42.027Z,58176
2017-07-04T06:00:57.249Z,8248
2017-07-04T06:01:42.354Z,9640
2017-07-04T06:02:42.388Z,8212
2017-07-04T06:03:42.765Z,66624
2017-07-04T06:04:42.436Z,11848
2017-07-04T06:05:42.757Z,12608
2017-07-04T06:06:42.489Z,6356
2017-07-04T06:07:42.497Z,4824
2017-07-04T06:08:42.922Z,5076
2017-07-04T06:09:42.563Z,5728
2017-07-04T06:10:56.871Z,4632
2017-07-04T06:11:42.903Z,3728
2017-07-04T06:12:42.618Z,2848
2017-07-04T06:13:42.990Z,2428
2017-07-04T06:14:42.999Z,2604
2017-07-04T06:15:43.029Z,2236
2017-07-04T06:16:57.333Z,2540
2017-07-04T06:17:57.686Z,3892
2017-07-04T06:18:43.084Z,6580
2017-07-04T06:19:42.817Z,10988
2017-07-04T06:20:57.121Z,7208
2017-07-04T06:21:57.459Z,4780
2017-07-04T06:22:42.887Z,4704
2017-07-04T06:23:42.912Z,5332
2017-07-04T06:24:42.935Z,5236
2017-07-04T06:25:42.969Z,5248
2017-07-04T06:27:57.912Z,12920
2017-07-04T06:28:43.370Z,8972
2017-07-04T06:29:43.054Z,9120
2017-07-04T06:30:57.673Z,7208
2017-07-04T06:31:42.797Z,6588
2017-07-04T06:32:57.427Z,9452
2017-07-04T06:33:42.847Z,22624
2017-07-04T06:34:43.500Z,15296
2017-07-04T06:35:43.223Z,21024
2017-07-04T06:36:43.219Z,77088
2017-07-04T06:37:42.951Z,96320
2017-07-04T06:38:42.701Z,75200
2017-07-04T06:39:58.235Z,82848
2017-07-04T06:40:43.020Z,95872
2017-07-04T06:41:43.357Z,20512
2017-07-04T06:42:58.373Z,22560
2017-07-04T06:43:43.701Z,14004
2017-07-04T06:44:43.451Z,10820
2017-07-04T06:45:43.556Z,12072
2017-07-04T06:46:58.421Z,63520
2017-07-04T06:47:43.216Z,89472
2017-07-04T06:48:43.862Z,89120
2017-07-04T06:49:58.172Z,82496
2017-07-04T06:50:43.927Z,17760
2017-07-04T06:51:43.623Z,38016
2017-07-04T06:52:43.658Z,14300
2017-07-04T06:53:43.683Z,9356
2017-07-04T06:54:43.730Z,9016
2017-07-04T06:55:43.421Z,8188
2017-07-04T06:56:43.462Z,8216
2017-07-04T06:57:58.716Z,6812
2017-07-04T06:58:44.157Z,6184
2017-07-04T06:59:43.851Z,5720
2017-07-04T07:00:43.904Z,26176
2017-07-04T07:01:58.839Z,87008
2017-07-04T07:03:44.298Z,30560
2017-07-04T07:04:44.465Z,46304
2017-07-04T07:05:44.019Z,12592
2017-07-04T07:06:58.642Z,21792
2017-07-04T07:07:43.691Z,79808
2017-07-04T07:08:44.112Z,14800
2017-07-04T07:09:59.043Z,70912
2017-07-04T07:10:44.534Z,16176
2017-07-04T07:11:44.194Z,15212
2017-07-04T07:14:44.361Z,10984
2017-07-04T07:15:44.306Z,10612
2017-07-04T07:16:58.928Z,9672
2017-07-04T07:17:43.729Z,8896
2017-07-04T07:18:44.716Z,8612
2017-07-04T07:19:44.393Z,9232
2017-07-04T07:20:44.488Z,8972
2017-07-04T07:21:44.142Z,8592
2017-07-04T07:22:44.495Z,7888
2017-07-04T07:23:44.928Z,6948
2017-07-04T07:24:44.520Z,6152
2017-07-04T07:25:59.492Z,6828
2017-07-04T07:27:45.256Z,11148
2017-07-04T07:28:44.973Z,13808
2017-07-04T07:29:59.591Z,24224
2017-07-04T07:30:44.496Z,75168
2017-07-04T07:31:45.038Z,11140
2017-07-04T07:32:59.677Z,7468
2017-07-04T07:33:44.771Z,6420
2017-07-04T07:34:59.732Z,5804
2017-07-04T07:35:59.772Z,5800
2017-07-04T07:36:44.856Z,5576
2017-07-04T07:37:45.320Z,5644
2017-07-04T07:38:59.831Z,7024
2017-07-04T07:39:45.263Z,8688
2017-07-04T07:40:45.269Z,19424
2017-07-04T07:42:44.719Z,12192
2017-07-04T07:43:44.977Z,10052
2017-07-04T07:44:45.080Z,9816
2017-07-04T07:45:59.705Z,8232
2017-07-04T07:46:45.449Z,7884
2017-07-04T07:47:45.364Z,8312
2017-07-04T07:48:45.470Z,8940
2017-07-04T07:49:59.797Z,68928
2017-07-04T07:50:45.345Z,67200
2017-07-04T07:51:45.672Z,69024
2017-07-04T07:52:45.677Z,14436
2017-07-04T07:54:00.384Z,73600
2017-07-04T07:54:45.354Z,73120
2017-07-04T07:55:45.353Z,71776
2017-07-04T07:56:45.129Z,51136
2017-07-04T07:57:45.806Z,13804
2017-07-04T07:58:45.775Z,9716
2017-07-04T07:59:45.494Z,7860
2017-07-04T08:00:45.302Z,6788
2017-07-04T08:02:00.138Z,6456
2017-07-04T08:03:45.437Z,39904
2017-07-04T08:05:45.972Z,7600
2017-07-04T08:06:46.349Z,34944
2017-07-04T08:07:46.130Z,9132
2017-07-04T08:08:45.728Z,8036
2017-07-04T08:10:45.906Z,58464
2017-07-04T08:11:45.496Z,8084
2017-07-04T08:12:45.850Z,7936
2017-07-04T08:13:46.538Z,8036
2017-07-04T08:14:45.591Z,26848
2017-07-04T08:15:45.930Z,10088
2017-07-04T08:18:00.580Z,8812
2017-07-04T08:19:00.931Z,23872
2017-07-04T08:20:00.952Z,21952
2017-07-04T08:21:01.169Z,21184
2017-07-04T08:21:46.088Z,20864
2017-07-04T08:22:45.791Z,20896
2017-07-04T08:23:45.837Z,20800
2017-07-04T08:24:45.861Z,20864
2017-07-04T08:25:46.532Z,20960
2017-07-04T08:26:46.281Z,20832
2017-07-04T08:27:46.571Z,21984
2017-07-04T08:28:46.305Z,22944
2017-07-04T08:29:46.314Z,23104
2017-07-04T08:30:46.364Z,22496
2017-07-04T08:31:46.363Z,15000
2017-07-04T08:33:01.339Z,22112
2017-07-04T08:33:46.623Z,21920
2017-07-04T08:34:46.783Z,21536
2017-07-04T08:35:46.486Z,20992
2017-07-04T08:36:46.911Z,10024
2017-07-04T08:37:46.590Z,10724
2017-07-04T08:38:46.587Z,21472
2017-07-04T08:39:46.614Z,9612
2017-07-04T08:40:47.344Z,9520
2017-07-04T08:42:01.581Z,12592
2017-07-04T08:43:01.318Z,17760
2017-07-04T08:43:46.418Z,12556
2017-07-04T08:44:46.140Z,10080
2017-07-04T08:46:01.728Z,8264
2017-07-04T08:46:46.825Z,7928
2017-07-04T08:47:47.388Z,8192
2017-07-04T08:48:46.882Z,8236
2017-07-04T08:49:47.247Z,8240
2017-07-04T08:50:47.362Z,8720
2017-07-04T08:51:46.999Z,19200
2017-07-04T08:52:47.323Z,18816
2017-07-04T08:54:01.956Z,18496
2017-07-04T08:55:47.425Z,18464
2017-07-04T08:56:47.450Z,18368
2017-07-04T08:57:46.842Z,18240
2017-07-04T08:58:47.168Z,18784
2017-07-04T08:59:47.278Z,19584
2017-07-04T09:00:47.548Z,19680
2017-07-04T09:02:02.233Z,20768
2017-07-04T09:02:47.309Z,17440
2017-07-04T09:03:47.661Z,11496
2017-07-04T09:05:01.971Z,15404
2017-07-04T09:05:48.003Z,9176
2017-07-04T09:06:47.437Z,13144
2017-07-04T09:07:47.777Z,8072
2017-07-04T09:09:02.094Z,8348
2017-07-04T09:09:47.199Z,18336
2017-07-04T09:10:47.551Z,10100
2017-07-04T09:12:02.681Z,19648
2017-07-04T09:12:46.984Z,12072
2017-07-04T09:13:47.925Z,18976
2017-07-04T09:14:47.823Z,18048
2017-07-04T09:16:02.304Z,18272
2017-07-04T09:17:02.327Z,17856
2017-07-04T09:17:48.227Z,17472
2017-07-04T09:18:47.777Z,16964
2017-07-04T09:19:47.876Z,16624
2017-07-04T09:21:17.049Z,15852
2017-07-04T09:21:47.621Z,15648
2017-07-04T09:22:48.220Z,15416
2017-07-04T09:23:47.456Z,15396
2017-07-04T09:24:48.013Z,15368
2017-07-04T09:25:48.317Z,15500
2017-07-04T09:26:48.357Z,6180
2017-07-04T09:28:02.653Z,7552
2017-07-04T09:28:48.106Z,16480
2017-07-04T09:29:48.117Z,16644
2017-07-04T09:30:48.264Z,17184
2017-07-04T09:31:48.489Z,17248
2017-07-04T09:33:02.497Z,18048
2017-07-04T09:33:49.054Z,18144
2017-07-04T09:34:48.599Z,18144
2017-07-04T09:35:48.303Z,18656
2017-07-04T09:37:03.259Z,18688
2017-07-04T09:37:48.354Z,18592
2017-07-04T09:38:48.734Z,19136
2017-07-04T09:39:48.740Z,16404
2017-07-04T09:40:48.861Z,18176
2017-07-04T09:42:48.516Z,9724
2017-07-04T09:43:48.557Z,11108
2017-07-04T09:44:48.899Z,9384
2017-07-04T09:46:48.321Z,9108
2017-07-04T09:48:03.477Z,8804
2017-07-04T09:49:03.615Z,8764
2017-07-04T09:50:49.396Z,9148
2017-07-04T09:51:48.473Z,9184
2017-07-04T09:53:03.763Z,8900
2017-07-04T09:53:49.169Z,15824
2017-07-04T09:54:48.611Z,16432
2017-07-04T09:55:48.901Z,13624
2017-07-04T09:56:48.671Z,15492
2017-07-04T09:57:49.333Z,15452
2017-07-04T09:58:49.012Z,15296
2017-07-04T09:59:49.365Z,15156
2017-07-04T10:00:49.612Z,15576
2017-07-04T10:01:49.093Z,14864
2017-07-04T10:03:03.778Z,14840
2017-07-04T10:03:49.481Z,14960
2017-07-04T10:04:49.568Z,10964
2017-07-04T10:05:49.258Z,15488
2017-07-04T10:06:49.238Z,16264
2017-07-04T10:08:04.001Z,17088
2017-07-04T10:08:49.297Z,17184
2017-07-04T10:09:49.030Z,17600
2017-07-04T10:11:03.950Z,18048
2017-07-04T10:11:49.406Z,17952
2017-07-04T10:12:49.109Z,17504
2017-07-04T10:13:49.124Z,17728
2017-07-04T10:14:49.841Z,17504
2017-07-04T10:15:49.845Z,16736
2017-07-04T10:16:49.875Z,15980
2017-07-04T10:17:49.999Z,13936
2017-07-04T10:18:49.597Z,17024
2017-07-04T10:20:03.915Z,9868
2017-07-04T10:20:50.026Z,14060
2017-07-04T10:21:49.738Z,9848
2017-07-04T10:22:49.422Z,13356
2017-07-04T10:23:49.127Z,9572
2017-07-04T10:24:50.104Z,10068
2017-07-04T10:25:49.816Z,14552
2017-07-04T10:26:49.890Z,9684
2017-07-04T10:27:49.976Z,9812
2017-07-04T10:29:50.246Z,9352
2017-07-04T10:30:49.659Z,8900
2017-07-04T10:31:50.310Z,9296
2017-07-04T10:32:50.041Z,8428
2017-07-04T10:33:50.476Z,8132
2017-07-04T10:34:50.153Z,8260
2017-07-04T10:35:50.103Z,14140
2017-07-04T10:36:50.132Z,9888
2017-07-04T10:37:50.062Z,10432
2017-07-04T10:38:50.566Z,9552
2017-07-04T10:40:50.668Z,9036
2017-07-04T10:41:49.978Z,9008
2017-07-04T10:42:49.994Z,10992
2017-07-04T10:43:50.035Z,8624
2017-07-04T10:44:49.741Z,9092
2017-07-04T10:45:50.717Z,9060
2017-07-04T10:46:50.742Z,16560
2017-07-04T10:47:50.827Z,16088
2017-07-04T10:49:50.530Z,12328
2017-07-04T10:50:50.908Z,13896
2017-07-04T10:51:50.578Z,9968
2017-07-04T10:52:50.921Z,16960
2017-07-04T10:54:50.667Z,10160
2017-07-04T10:56:04.972Z,15876
2017-07-04T10:56:50.450Z,15228
2017-07-04T10:57:51.060Z,13772
2017-07-04T10:58:51.080Z,13132
2017-07-04T10:59:50.815Z,12516
2017-07-04T11:00:50.826Z,12196
2017-07-04T11:01:50.226Z,11996
2017-07-04T11:02:50.867Z,11620
2017-07-04T11:03:51.425Z,11636
2017-07-04T11:04:50.624Z,11580
2017-07-04T11:05:51.293Z,11676
2017-07-04T11:06:51.010Z,11616
2017-07-04T11:07:51.332Z,5980
2017-07-04T11:08:51.366Z,7880
2017-07-04T11:09:51.404Z,12516
2017-07-04T11:10:51.318Z,12828
2017-07-04T11:12:05.731Z,12708
2017-07-04T11:12:51.177Z,12800
2017-07-04T11:13:51.686Z,12940
2017-07-04T11:15:51.582Z,6624
2017-07-04T11:17:06.182Z,11156
2017-07-04T11:18:06.226Z,12616
2017-07-04T11:18:51.340Z,12592
2017-07-04T11:19:51.381Z,11256
2017-07-04T11:20:51.953Z,7604
2017-07-04T11:21:51.728Z,13088
2017-07-04T11:22:51.445Z,12568
2017-07-04T11:23:51.166Z,10492
2017-07-04T11:24:51.786Z,10956
2017-07-04T11:26:06.459Z,10272
2017-07-04T11:26:51.866Z,10148
2017-07-04T11:28:06.184Z,9964
2017-07-04T11:28:51.453Z,9836
2017-07-04T11:29:51.334Z,9908
2017-07-04T11:31:06.334Z,10020
2017-07-04T11:31:51.749Z,10096
2017-07-04T11:32:51.934Z,10172
2017-07-04T11:33:52.078Z,6200
2017-07-04T11:34:52.095Z,5908
2017-07-04T11:36:06.729Z,5748
2017-07-04T11:37:06.434Z,8640
2017-07-04T11:37:52.206Z,7840
2017-07-04T11:38:52.269Z,6644
2017-07-04T11:39:52.257Z,10748
2017-07-04T11:40:51.940Z,8084
2017-07-04T11:43:06.617Z,10760
2017-07-04T11:43:52.335Z,10820
2017-07-04T11:45:52.549Z,10452
2017-07-04T11:46:51.814Z,9880
2017-07-04T11:47:52.455Z,9148
2017-07-04T11:48:52.220Z,8580
2017-07-04T11:50:06.528Z,8196
2017-07-04T11:50:52.566Z,8100
2017-07-04T11:52:07.058Z,8328
2017-07-04T11:52:51.968Z,8632
2017-07-04T11:53:52.630Z,9184
2017-07-04T11:54:52.676Z,9304
2017-07-04T11:55:52.369Z,7324
2017-07-04T11:56:52.086Z,9776
2017-07-04T11:57:52.727Z,9516
2017-07-04T11:58:52.454Z,8924
2017-07-04T11:59:52.867Z,8396
2017-07-04T12:00:52.204Z,8280
2017-07-04T12:01:52.220Z,8364
2017-07-04T12:02:52.717Z,8344
2017-07-04T12:03:52.900Z,8828
2017-07-04T12:04:52.602Z,9160
2017-07-04T12:05:52.594Z,9388
2017-07-04T12:06:52.664Z,9232
2017-07-04T12:07:52.712Z,9460
2017-07-04T12:08:52.889Z,7492
2017-07-04T12:09:52.761Z,9852
2017-07-04T12:10:53.091Z,9964
2017-07-04T12:11:52.488Z,9568
2017-07-04T12:12:52.990Z,8976
2017-07-04T12:13:52.555Z,5948
2017-07-04T12:15:07.186Z,8940
2017-07-04T12:15:52.944Z,8964
2017-07-04T12:16:52.956Z,7596
2017-07-04T12:17:52.965Z,7284
2017-07-04T12:19:08.033Z,7316
2017-07-04T12:19:52.720Z,9052
2017-07-04T12:21:07.977Z,7436
2017-07-04T12:22:07.687Z,7724
2017-07-04T12:22:53.223Z,7672
2017-07-04T12:23:53.445Z,10208
2017-07-04T12:24:53.180Z,10148
2017-07-04T12:25:53.260Z,6984
2017-07-04T12:26:53.237Z,9288
2017-07-04T12:27:53.567Z,8820
2017-07-04T12:28:52.969Z,8432
2017-07-04T12:29:53.403Z,7836
2017-07-04T12:31:07.933Z,8160
2017-07-04T12:31:53.043Z,5228
2017-07-04T12:32:53.112Z,7788
2017-07-04T12:33:53.425Z,7640
2017-07-04T12:34:53.144Z,5752
2017-07-04T12:36:08.652Z,7592
2017-07-04T12:36:53.822Z,7800
2017-07-04T12:37:52.893Z,6744
2017-07-04T12:38:53.652Z,6228
2017-07-04T12:40:53.616Z,9152
2017-07-04T12:42:53.991Z,8968
2017-07-04T12:43:53.381Z,7224
2017-07-04T12:44:53.776Z,9652
2017-07-04T12:45:54.126Z,9288
2017-07-04T12:47:08.374Z,7988
2017-07-04T12:47:54.137Z,8140
2017-07-04T12:48:53.811Z,5660
2017-07-04T12:49:54.183Z,5540
2017-07-04T12:50:53.580Z,6068
2017-07-04T12:51:53.660Z,8932
2017-07-04T12:52:53.735Z,8868
2017-07-04T12:53:53.975Z,8896
2017-07-04T12:54:53.994Z,9128
2017-07-04T12:55:54.626Z,9360
2017-07-04T12:57:53.443Z,7204
2017-07-04T12:58:54.488Z,7072
2017-07-04T13:00:08.740Z,9516
2017-07-04T13:00:54.176Z,9528
2017-07-04T13:01:53.860Z,9568
2017-07-04T13:03:08.805Z,9496
2017-07-04T13:03:53.934Z,9372
2017-07-04T13:05:09.196Z,8880
2017-07-04T13:05:54.555Z,8612
2017-07-04T13:07:08.935Z,8768
2017-07-04T13:07:54.351Z,9040
2017-07-04T13:08:54.108Z,9416
2017-07-04T13:09:54.401Z,9580
2017-07-04T13:10:54.447Z,9508
2017-07-04T13:11:54.472Z,9644
2017-07-04T13:12:54.496Z,9768
2017-07-04T13:13:54.857Z,6856
2017-07-04T13:15:09.459Z,6964
2017-07-04T13:16:54.936Z,6580
2017-07-04T13:18:09.541Z,9448
2017-07-04T13:18:55.011Z,9636
2017-07-04T13:20:09.606Z,9588
2017-07-04T13:20:54.730Z,7312
2017-07-04T13:21:54.747Z,9428
2017-07-04T13:22:54.767Z,9248
2017-07-04T13:23:54.482Z,9132
2017-07-04T13:25:09.420Z,8628
2017-07-04T13:25:55.122Z,8352
2017-07-04T13:27:09.797Z,8108
2017-07-04T13:27:55.226Z,8144
2017-07-04T13:29:09.897Z,8200
2017-07-04T13:29:54.707Z,8268
2017-07-04T13:30:55.309Z,8524
2017-07-04T13:31:55.346Z,8932
2017-07-04T13:32:54.991Z,7036
2017-07-04T13:33:55.053Z,8436
2017-07-04T13:34:55.422Z,8244
2017-07-04T13:35:55.684Z,8480
2017-07-04T13:36:55.557Z,9064
2017-07-04T13:37:54.864Z,6616
2017-07-04T13:38:55.672Z,9748
2017-07-04T13:39:55.542Z,9992
2017-07-04T13:40:55.287Z,7420
2017-07-04T13:41:55.596Z,9920
2017-07-04T13:42:55.370Z,9528
2017-07-04T13:43:55.024Z,9292
2017-07-04T13:45:10.303Z,9084
2017-07-04T13:45:55.711Z,6232
2017-07-04T13:46:55.762Z,9312
2017-07-04T13:47:55.779Z,9200
2017-07-04T13:48:55.798Z,8824
2017-07-04T13:50:10.112Z,5380
2017-07-04T13:51:10.134Z,5024
2017-07-04T13:51:56.197Z,4724
2017-07-04T13:52:55.651Z,7436
2017-07-04T13:53:55.635Z,7284
2017-07-04T13:54:55.847Z,7180
2017-07-04T13:56:10.281Z,4340
2017-07-04T13:57:10.621Z,7380
2017-07-04T13:58:55.497Z,8016
2017-07-04T13:59:56.094Z,8672
2017-07-04T14:00:56.139Z,9196
2017-07-04T14:01:56.163Z,9248
2017-07-04T14:02:56.195Z,6124
2017-07-04T14:03:55.886Z,6572
2017-07-04T14:04:56.227Z,5552
2017-07-04T14:06:25.469Z,5172
2017-07-04T14:06:55.979Z,5572
2017-07-04T14:07:56.326Z,8040
2017-07-04T14:08:56.394Z,7592
2017-07-04T14:09:56.370Z,6888
2017-07-04T14:10:55.782Z,6608
2017-07-04T14:11:56.117Z,5796
2017-07-04T14:12:56.520Z,5764
2017-07-04T14:13:56.174Z,5612
2017-07-04T14:15:56.792Z,5156
2017-07-04T14:16:56.225Z,5360
2017-07-04T14:17:56.653Z,5588
2017-07-04T14:18:56.612Z,6572
2017-07-04T14:20:56.670Z,4904
2017-07-04T14:22:10.659Z,4556